Flight Track Log - Related Links

Times and Time Zones

All times are in EDT time to prevent confusion due to time zone crossing. See the CSN6511 flight status page for this flight to view local times or setup timezone preferences in your user account.

Time Position Orientation Groundspeed Altitude Reporting Facility
EDT Latitude Longitude Course Direction KTS MPH feet Rate Location/Type
05:47AM 36.0063 112.2789 356° North  Level Estimated
05:48AM 36.1117 112.2696 356° North  Level Estimated
05:49AM 36.2171 112.2603 356° North  Level Estimated
05:50AM 36.3225 112.2510 356° North  Level Estimated
05:51AM 36.4280 112.2417 356° North  Level Estimated
05:52AM 36.5334 112.2323 356° North  Level Estimated
05:53AM 36.6388 112.2229 356° North  Level Estimated
05:54AM 36.7442 112.2135 356° North  Level Estimated
05:55AM 36.8496 112.2040 356° North  Level Estimated
05:56AM 36.9551 112.1945 356° North  Level Estimated
05:57AM 37.0605 112.1850 356° North  Level Estimated
05:58AM 37.1659 112.1755 356° North  Level Estimated
05:59AM 37.2713 112.1659 356° North  Level Estimated
06:00AM 37.3767 112.1563 356° North  Level Estimated
06:01AM 37.4821 112.1467 356° North  Level Estimated
06:02AM 37.5875 112.1371 356° North  Level Estimated
06:03AM 37.6930 112.1274 356° North  Level Estimated
06:04AM 37.7984 112.1177 356° North  Level Estimated
06:05AM 37.9038 112.1080 356° North  Level Estimated
06:06AM 38.0092 112.0983 356° North  Level Estimated
06:07AM 38.1146 112.0885 356° North  Level Estimated
06:08AM 38.2200 112.0787 356° North  Level Estimated
06:09AM 38.3254 112.0688 356° North  Level Estimated
06:10AM 38.4308 112.0590 356° North  Level Estimated
06:11AM 38.5362 112.0491 356° North  Level Estimated
06:12AM 38.6416 112.0392 356° North  Level Estimated
06:13AM 38.7470 112.0292 356° North  Level Estimated
06:14AM 38.8525 112.0192 356° North  Level Estimated
06:15AM 38.9579 112.0092 356° North  Level Estimated
06:16AM 39.0633 111.9992 356° North  Level Estimated
06:17AM 39.1687 111.9891 356° North  Level Estimated
06:18AM 39.2741 111.9790 356° North  Level Estimated
06:19AM 39.3795 111.9689 356° North  Level Estimated
06:20AM 39.4849 111.9587 356° North  Level Estimated
06:21AM 39.5902 111.9485 356° North  Level Estimated
06:22AM 39.6956 111.9383 356° North  Level Estimated
06:23AM 39.8010 111.9281 356° North  Level Estimated
06:24AM 39.9064 111.9178 356° North  Level Estimated
06:25AM 40.0118 111.9074 356° North  Level Estimated
06:26AM 40.1172 111.8971 356° North  Level Estimated
06:27AM 40.2226 111.8867 356° North  Level Estimated
06:28AM 40.3280 111.8763 356° North  Level Estimated
06:29AM 40.4334 111.8659 356° North  Level Estimated
06:30AM 40.5388 111.8554 356° North  Level Estimated
06:31AM 40.6442 111.8449 356° North  Level Estimated
06:32AM 40.7496 111.8343 356° North  Level Estimated
06:33AM 40.8514 111.8241 356° North  Level Estimated
06:34AM 40.8514 111.8241 North  Level Estimated
06:35AM 40.8514 111.8241 North  Level Estimated
06:36AM 40.8514 111.8241 North  Level Estimated
06:37AM 40.8514 111.8241 North  Level Estimated
06:38AM 40.8514 111.8241 North  Level Estimated
06:39AM 40.8514 111.8241 North  Level Estimated
06:40AM 40.8514 111.8241 North  Level Estimated
06:41AM 40.8514 111.8241 North  Level Estimated
06:42AM 40.8514 111.8241 North  Level Estimated
06:43AM 40.8514 111.8241 North  Level Estimated
06:44AM 40.8514 111.8241 North  Level Estimated
06:45AM 40.8514 111.8241 North  Level Estimated
06:46AM 40.8514 111.8241 North  Level Estimated
06:47AM 40.8514 111.8241 North  Level Estimated
06:48AM 40.8514 111.8241 North  Level Estimated
06:49AM 40.8514 111.8241 North  Level Estimated

Login

Don't have an account? Register now (free) for customized features, flight alerts, and more!